Time;durP1;ratioP1;P1;durP2;ratioP2;P2;SDS_P1;SDS_P2;PMS_P1;PMS_P2;Temp;Humidity;BMP_temperature;BMP_pressure;BME280_temperature;BME280_humidity;BME280_pressure;Samples;Min_cycle;Max_cycle;Signal;HPM_P1;HPM_P2
2022/07/07 00:00:23;;;;;;;3.20;2.38;;;19.60;69.30;;;;;;5039520;28;20523;-67
2022/07/07 00:02:49;;;;;;;3.15;2.53;;;19.60;69.50;;;;;;5046532;28;20100;-67
2022/07/07 00:05:14;;;;;;;4.63;2.65;;;19.60;69.50;;;;;;5044119;28;20095;-68
2022/07/07 00:07:40;;;;;;;3.67;2.80;;;19.70;69.60;;;;;;5047645;28;20029;-68
2022/07/07 00:10:06;;;;;;;4.03;2.92;;;19.60;69.60;;;;;;5037695;28;20109;-67
2022/07/07 00:12:32;;;;;;;3.58;2.72;;;19.70;69.70;;;;;;5033484;28;20056;-67
2022/07/07 00:14:57;;;;;;;2.90;2.33;;;19.70;69.80;;;;;;5031693;28;20025;-68
2022/07/07 00:17:23;;;;;;;4.88;2.80;;;19.70;69.70;;;;;;5040463;28;20029;-68
2022/07/07 00:19:49;;;;;;;5.28;3.70;;;19.70;69.60;;;;;;5044965;28;20027;-68
2022/07/07 00:22:14;;;;;;;3.50;2.65;;;19.70;69.70;;;;;;5033428;28;20017;-69
2022/07/07 00:24:40;;;;;;;4.97;3.33;;;19.70;69.90;;;;;;5033218;28;20603;-68
2022/07/07 00:27:05;;;;;;;3.42;2.90;;;19.70;69.80;;;;;;5040059;28;20047;-67
2022/07/07 00:29:31;;;;;;;4.95;3.30;;;19.70;69.80;;;;;;5042098;28;20633;-67
2022/07/07 00:31:56;;;;;;;4.75;2.90;;;19.70;69.80;;;;;;5038151;28;20500;-68
2022/07/07 00:34:22;;;;;;;3.40;2.40;;;19.70;69.80;;;;;;5035434;28;20029;-69
2022/07/07 00:36:47;;;;;;;4.22;3.03;;;19.70;69.80;;;;;;5045398;28;20033;-69
2022/07/07 00:39:13;;;;;;;4.40;2.88;;;19.70;70.70;;;;;;5044691;28;20504;-69
2022/07/07 00:41:39;;;;;;;3.22;2.58;;;19.70;70.00;;;;;;5040888;28;20507;-68
2022/07/07 00:44:06;;;;;;;6.10;3.40;;;19.70;69.90;;;;;;5038448;28;20052;-69
2022/07/07 00:46:47;;;;;;;4.40;3.00;;;19.70;70.10;;;;;;5044201;28;20028;-69
2022/07/07 00:49:16;;;;;;;3.72;2.85;;;19.70;70.30;;;;;;5044344;28;20013;-69
2022/07/07 00:51:42;;;;;;;4.43;3.00;;;19.70;70.20;;;;;;5045411;28;20033;-69
2022/07/07 00:54:08;;;;;;;4.10;3.00;;;19.70;70.30;;;;;;5038684;28;20068;-70
2022/07/07 00:56:34;;;;;;;6.20;3.60;;;19.70;70.30;;;;;;5039516;28;20025;-70
2022/07/07 00:59:06;;;;;;;3.78;2.58;;;19.70;70.60;;;;;;5040489;28;20032;-70
2022/07/07 01:01:34;;;;;;;3.42;2.55;;;19.70;70.60;;;;;;5046417;28;20106;-69
2022/07/07 01:04:00;;;;;;;4.32;3.25;;;19.70;70.60;;;;;;5041588;28;20522;-70
2022/07/07 01:06:26;;;;;;;6.32;3.70;;;19.70;70.90;;;;;;5041920;28;20029;-69
2022/07/07 01:08:53;;;;;;;5.68;3.65;;;19.60;71.50;;;;;;5049537;28;20021;-69
2022/07/07 01:11:18;;;;;;;4.22;2.83;;;19.60;71.70;;;;;;5042556;28;20119;-67
2022/07/07 01:13:44;;;;;;;4.28;3.10;;;19.60;71.80;;;;;;5031692;28;20041;-67
2022/07/07 01:16:09;;;;;;;3.70;2.88;;;19.60;72.00;;;;;;5040936;28;20432;-67
2022/07/07 01:18:35;;;;;;;5.03;3.80;;;19.60;72.10;;;;;;5043369;28;20048;-66
2022/07/07 01:21:05;;;;;;;5.65;3.60;;;19.60;72.60;;;;;;5038614;28;20042;-67
2022/07/07 01:23:31;;;;;;;5.40;3.75;;;19.50;73.30;;;;;;5031023;28;20037;-67
2022/07/07 01:25:56;;;;;;;3.40;3.00;;;19.40;73.80;;;;;;5041688;28;20084;-67
2022/07/07 01:28:22;;;;;;;4.03;2.55;;;19.40;73.80;;;;;;5037803;28;20024;-68
2022/07/07 01:30:47;;;;;;;5.28;3.25;;;19.40;73.80;;;;;;5036415;28;20045;-68
2022/07/07 01:33:16;;;;;;;4.45;3.28;;;19.30;74.10;;;;;;5041973;28;20032;-68
2022/07/07 01:35:41;;;;;;;5.70;3.80;;;19.30;74.20;;;;;;5046691;28;20036;-68
2022/07/07 01:38:07;;;;;;;4.22;2.60;;;19.30;74.50;;;;;;5044914;28;20067;-67
2022/07/07 01:40:32;;;;;;;5.35;3.28;;;19.30;74.20;;;;;;5037323;28;20369;-67
2022/07/07 01:42:58;;;;;;;3.80;3.10;;;19.40;74.30;;;;;;5049622;28;20090;-68
2022/07/07 01:45:23;;;;;;;4.60;3.00;;;19.40;74.40;;;;;;5040957;28;20096;-67
2022/07/07 01:47:49;;;;;;;2.65;2.28;;;19.40;74.20;;;;;;5042249;28;20505;-67
2022/07/07 01:50:14;;;;;;;3.67;2.85;;;19.40;74.10;;;;;;5037611;28;20029;-67
2022/07/07 01:52:40;;;;;;;3.97;3.10;;;19.40;74.10;;;;;;5046135;28;20025;-67
2022/07/07 01:55:06;;;;;;;5.15;3.67;;;19.30;74.40;;;;;;5036264;28;20066;-68
2022/07/07 01:57:31;;;;;;;4.20;3.10;;;19.30;74.90;;;;;;5046068;28;20033;-68
2022/07/07 01:59:57;;;;;;;2.88;2.35;;;19.30;74.90;;;;;;5045227;28;20516;-69
2022/07/07 02:02:23;;;;;;;3.83;2.85;;;19.30;74.80;;;;;;5045365;28;20563;-68
2022/07/07 02:04:48;;;;;;;5.30;3.10;;;19.30;74.90;;;;;;5039064;28;20034;-68
2022/07/07 02:07:14;;;;;;;3.60;2.80;;;19.30;75.00;;;;;;5029919;28;20029;-68
2022/07/07 02:09:40;;;;;;;3.15;2.47;;;19.30;74.90;;;;;;5040787;28;20061;-68
2022/07/07 02:12:06;;;;;;;3.50;2.67;;;19.30;74.90;;;;;;5047569;28;20052;-68
2022/07/07 02:14:31;;;;;;;2.90;2.35;;;19.40;74.80;;;;;;5042138;28;20032;-69
2022/07/07 02:16:57;;;;;;;4.55;2.15;;;19.40;74.70;;;;;;5031139;28;20084;-68
2022/07/07 02:19:23;;;;;;;3.47;2.40;;;19.40;74.60;;;;;;5039377;28;20025;-68
2022/07/07 02:21:48;;;;;;;4.85;2.40;;;19.40;74.60;;;;;;5048668;28;20464;-68
2022/07/07 02:24:14;;;;;;;3.33;2.20;;;19.40;74.80;;;;;;5041714;28;20087;-68
2022/07/07 02:26:39;;;;;;;3.42;2.00;;;19.40;74.80;;;;;;5037131;28;20030;-69
2022/07/07 02:29:05;;;;;;;4.43;2.60;;;19.30;75.00;;;;;;5032709;28;20083;-68
2022/07/07 02:31:30;;;;;;;2.90;2.15;;;19.30;75.40;;;;;;5032089;28;20535;-68
2022/07/07 02:33:56;;;;;;;3.72;2.55;;;19.20;75.50;;;;;;5046659;28;20112;-68
2022/07/07 02:36:21;;;;;;;3.33;1.95;;;19.10;75.80;;;;;;5035287;28;20029;-67
2022/07/07 02:38:49;;;;;;;3.65;2.10;;;19.00;75.90;;;;;;5030059;28;20029;-67
2022/07/07 02:41:15;;;;;;;2.88;1.40;;;18.90;76.30;;;;;;5038874;28;20032;-68
2022/07/07 02:43:40;;;;;;;2.63;1.60;;;18.90;76.40;;;;;;5045955;28;20460;-68
2022/07/07 02:46:06;;;;;;;2.08;1.10;;;18.70;76.50;;;;;;5041374;28;20108;-68
2022/07/07 02:48:31;;;;;;;1.70;1.20;;;18.70;76.60;;;;;;5038802;28;20060;-68
2022/07/07 02:50:57;;;;;;;2.40;1.30;;;18.60;76.60;;;;;;5044000;28;20438;-69
2022/07/07 02:53:22;;;;;;;2.05;1.48;;;18.60;76.80;;;;;;5047003;28;20701;-69
2022/07/07 02:55:48;;;;;;;2.22;1.40;;;18.50;77.20;;;;;;5044220;28;20387;-69
2022/07/07 02:58:22;;;;;;;1.50;1.30;;;18.40;77.30;;;;;;5041659;28;20044;-69
2022/07/07 03:00:49;;;;;;;1.35;1.08;;;18.50;77.50;;;;;;5048727;28;20028;-68
2022/07/07 03:03:16;;;;;;;2.50;1.17;;;18.50;77.40;;;;;;5041305;28;20021;-67
2022/07/07 03:05:41;;;;;;;1.38;1.10;;;18.40;77.30;;;;;;5039872;28;20049;-67
2022/07/07 03:08:07;;;;;;;1.88;1.10;;;18.50;77.30;;;;;;5037741;28;20060;-68
2022/07/07 03:10:33;;;;;;;2.70;1.40;;;18.40;77.40;;;;;;5041733;28;20029;-69
2022/07/07 03:12:59;;;;;;;1.92;1.40;;;18.40;77.40;;;;;;5032636;28;20026;-69
2022/07/07 03:15:25;;;;;;;2.50;1.02;;;18.40;77.50;;;;;;5042876;28;20032;-68
2022/07/07 03:17:52;;;;;;;2.80;1.30;;;18.30;77.60;;;;;;5046060;28;20503;-68
2022/07/07 03:20:18;;;;;;;2.28;1.20;;;18.30;77.60;;;;;;5043429;28;20021;-67
2022/07/07 03:22:43;;;;;;;1.92;1.30;;;18.30;77.90;;;;;;5046276;28;20022;-67
2022/07/07 03:25:10;;;;;;;1.52;1.40;;;18.30;77.90;;;;;;5040190;28;20049;-66
2022/07/07 03:27:36;;;;;;;1.33;1.20;;;18.30;78.90;;;;;;5034476;28;20037;-66
2022/07/07 03:30:04;;;;;;;2.45;1.98;;;18.30;78.30;;;;;;5033803;28;20133;-67
2022/07/07 03:32:30;;;;;;;2.65;1.60;;;18.20;78.70;;;;;;5048265;28;20649;-66
2022/07/07 03:34:56;;;;;;;1.80;1.30;;;18.20;78.80;;;;;;5050654;28;20037;-67
2022/07/07 03:37:22;;;;;;;3.35;1.50;;;18.20;78.70;;;;;;5047870;28;20826;-67
2022/07/07 03:39:47;;;;;;;1.83;1.50;;;18.20;78.80;;;;;;5050306;28;20681;-67
2022/07/07 03:42:13;;;;;;;2.55;1.60;;;18.20;78.70;;;;;;5048938;28;20025;-66
2022/07/07 03:44:38;;;;;;;2.10;1.25;;;18.20;78.70;;;;;;5048341;28;20061;-66
2022/07/07 03:47:05;;;;;;;1.55;1.30;;;18.20;78.80;;;;;;5049118;28;20047;-66
2022/07/07 03:49:31;;;;;;;1.45;1.35;;;18.20;78.90;;;;;;5050575;28;20100;-67
2022/07/07 03:51:57;;;;;;;2.65;1.58;;;18.20;78.90;;;;;;5042897;28;20041;-67
2022/07/07 03:54:22;;;;;;;3.72;1.98;;;18.10;79.10;;;;;;5036751;28;20057;-67
2022/07/07 03:56:48;;;;;;;2.75;1.40;;;18.20;79.30;;;;;;5033906;28;20060;-67
2022/07/07 03:59:13;;;;;;;1.48;1.38;;;18.10;79.50;;;;;;5051100;28;20052;-67
2022/07/07 04:01:44;;;;;;;1.83;1.30;;;18.10;79.70;;;;;;5046625;28;20017;-66
2022/07/07 04:04:10;;;;;;;3.60;1.47;;;18.10;79.70;;;;;;5048334;28;20365;-68
2022/07/07 04:06:36;;;;;;;1.63;1.38;;;18.10;79.80;;;;;;5039931;28;20437;-67
2022/07/07 04:09:02;;;;;;;1.85;1.30;;;18.10;80.00;;;;;;5033336;28;20055;-67
2022/07/07 04:11:27;;;;;;;3.13;1.50;;;18.10;79.90;;;;;;5035372;28;20121;-67
2022/07/07 04:13:53;;;;;;;2.08;1.60;;;18.10;80.00;;;;;;5038044;28;20021;-66
2022/07/07 04:16:18;;;;;;;1.98;1.42;;;18.10;80.20;;;;;;5041275;28;20025;-67
2022/07/07 04:18:44;;;;;;;2.17;1.60;;;18.10;80.30;;;;;;5031661;28;20431;-68
2022/07/07 04:21:09;;;;;;;2.45;1.42;;;18.10;80.20;;;;;;5039519;28;20025;-67
2022/07/07 04:23:35;;;;;;;2.38;1.60;;;18.10;80.30;;;;;;5037077;28;20060;-67
2022/07/07 04:26:00;;;;;;;2.08;1.42;;;18.10;80.30;;;;;;5047502;28;20499;-68
2022/07/07 04:28:26;;;;;;;2.30;1.40;;;18.10;80.20;;;;;;5039689;28;20052;-68
2022/07/07 04:30:51;;;;;;;2.13;1.30;;;18.10;80.20;;;;;;5043954;28;20120;-68
2022/07/07 04:33:17;;;;;;;1.98;1.60;;;18.10;80.10;;;;;;5034136;28;20499;-67
2022/07/07 04:35:43;;;;;;;2.00;1.42;;;18.10;80.50;;;;;;5042709;28;20036;-68
2022/07/07 04:38:08;;;;;;;3.42;1.30;;;18.00;80.70;;;;;;5038653;28;20032;-68
2022/07/07 04:40:34;;;;;;;2.17;1.23;;;18.00;80.80;;;;;;5041319;28;20035;-69
2022/07/07 04:42:59;;;;;;;0.98;0.88;;;17.90;80.80;;;;;;5032486;28;20035;-68
2022/07/07 04:45:25;;;;;;;2.45;0.80;;;17.90;80.90;;;;;;5042448;28;20086;-66
2022/07/07 04:47:50;;;;;;;1.33;0.85;;;17.90;80.80;;;;;;5038995;28;20124;-67
2022/07/07 04:50:16;;;;;;;1.35;0.88;;;17.80;80.70;;;;;;5046511;28;20086;-68
2022/07/07 04:52:41;;;;;;;0.88;0.70;;;17.90;80.80;;;;;;5039051;28;20527;-67
2022/07/07 04:55:07;;;;;;;1.17;0.70;;;17.90;80.60;;;;;;5044776;28;20092;-67
2022/07/07 04:57:33;;;;;;;3.38;0.90;;;17.90;80.70;;;;;;5041702;28;20492;-67
2022/07/07 04:59:58;;;;;;;2.05;1.00;;;17.90;80.60;;;;;;5034341;28;20147;-67
2022/07/07 05:02:24;;;;;;;1.83;0.93;;;17.90;80.60;;;;;;5034198;28;20506;-67
2022/07/07 05:04:50;;;;;;;2.35;1.10;;;17.90;80.60;;;;;;5038934;28;20025;-66
2022/07/07 05:07:16;;;;;;;2.80;1.48;;;17.90;80.70;;;;;;5047969;28;20044;-67
2022/07/07 05:09:42;;;;;;;2.97;1.40;;;17.90;80.80;;;;;;5034098;28;20017;-66
2022/07/07 05:12:08;;;;;;;2.70;1.20;;;17.90;80.70;;;;;;5035788;28;20075;-67
2022/07/07 05:14:34;;;;;;;2.35;0.90;;;18.00;80.70;;;;;;5043253;28;20054;-68
2022/07/07 05:16:59;;;;;;;1.98;1.00;;;18.00;80.70;;;;;;5040717;28;20514;-67
2022/07/07 05:19:26;;;;;;;2.05;1.00;;;18.10;80.50;;;;;;5046182;28;20066;-66
2022/07/07 05:21:51;;;;;;;2.88;1.20;;;18.20;80.30;;;;;;5041017;28;20132;-67
2022/07/07 05:24:17;;;;;;;2.40;1.00;;;18.20;80.20;;;;;;5041843;28;20519;-68
2022/07/07 05:26:43;;;;;;;3.75;1.25;;;18.20;80.20;;;;;;5039235;28;20033;-68
2022/07/07 05:29:08;;;;;;;2.85;1.10;;;18.10;80.20;;;;;;5039344;28;20487;-67
2022/07/07 05:31:34;;;;;;;2.13;0.90;;;18.10;80.50;;;;;;5041146;28;20060;-67
2022/07/07 05:34:00;;;;;;;4.35;1.10;;;18.00;80.50;;;;;;5040945;28;20108;-67
2022/07/07 05:36:25;;;;;;;4.38;1.17;;;18.00;80.40;;;;;;5037327;28;20021;-68
2022/07/07 05:38:51;;;;;;;3.55;0.95;;;18.00;80.30;;;;;;5040229;28;20075;-68
2022/07/07 05:41:17;;;;;;;6.13;1.40;;;18.00;80.20;;;;;;5045534;28;20035;-68
2022/07/07 05:43:42;;;;;;;4.22;1.52;;;18.00;80.00;;;;;;5039676;28;20500;-67
2022/07/07 05:46:08;;;;;;;3.80;1.10;;;18.20;79.60;;;;;;5042490;28;20041;-67
2022/07/07 05:48:34;;;;;;;2.10;0.88;;;18.30;79.10;;;;;;5041910;28;20024;-68
2022/07/07 05:50:59;;;;;;;3.75;1.10;;;18.40;79.30;;;;;;5048410;28;20491;-67
2022/07/07 05:53:25;;;;;;;3.30;0.90;;;18.50;78.40;;;;;;5039159;28;20033;-67
2022/07/07 05:55:50;;;;;;;4.53;1.20;;;18.50;78.30;;;;;;5034833;28;20025;-67
2022/07/07 05:58:16;;;;;;;4.47;1.15;;;18.60;78.20;;;;;;5044817;28;20092;-67
2022/07/07 06:00:42;;;;;;;4.03;1.08;;;18.70;77.50;;;;;;5042172;28;20102;-67
2022/07/07 06:03:07;;;;;;;5.68;1.30;;;18.70;77.40;;;;;;5036356;28;20033;-68
2022/07/07 06:05:33;;;;;;;3.45;1.20;;;18.70;77.20;;;;;;5032115;28;20026;-68
2022/07/07 06:07:58;;;;;;;5.82;1.27;;;18.70;77.10;;;;;;5040775;28;20029;-68
2022/07/07 06:10:24;;;;;;;5.18;1.40;;;18.60;77.00;;;;;;5040360;28;20014;-68
2022/07/07 06:12:49;;;;;;;4.78;1.30;;;18.50;77.10;;;;;;5040437;28;20021;-68
2022/07/07 06:15:17;;;;;;;4.28;1.10;;;18.50;77.00;;;;;;5035047;28;20021;-68
2022/07/07 06:17:43;;;;;;;7.00;1.83;;;18.50;77.10;;;;;;5034426;28;20163;-68
2022/07/07 06:20:09;;;;;;;4.05;1.38;;;18.40;77.00;;;;;;5035346;28;20503;-68
2022/07/07 06:22:35;;;;;;;4.50;1.10;;;18.30;77.20;;;;;;5052033;28;20134;-68
2022/07/07 06:25:00;;;;;;;3.47;1.30;;;18.10;77.50;;;;;;5053473;28;20033;-67
2022/07/07 06:27:26;;;;;;;5.18;1.48;;;18.10;77.80;;;;;;5053383;28;20472;-67
2022/07/07 06:29:55;;;;;;;4.18;1.10;;;18.00;77.90;;;;;;5043509;28;20041;-68
2022/07/07 06:32:21;;;;;;;4.78;1.20;;;17.90;78.00;;;;;;5056669;28;20140;-68
2022/07/07 06:34:47;;;;;;;4.65;1.30;;;17.90;78.20;;;;;;5051923;28;20060;-68
2022/07/07 06:37:12;;;;;;;4.07;1.13;;;18.00;77.90;;;;;;5046247;28;20061;-68
2022/07/07 06:39:38;;;;;;;4.47;1.25;;;18.20;77.50;;;;;;5050355;28;20071;-68
2022/07/07 06:42:04;;;;;;;7.10;1.70;;;18.30;76.90;;;;;;5053371;28;20021;-68
2022/07/07 06:44:33;;;;;;;3.85;1.13;;;18.40;76.60;;;;;;5052864;28;20531;-68
2022/07/07 06:46:59;;;;;;;5.07;1.20;;;18.40;76.30;;;;;;5044397;28;20079;-67
2022/07/07 06:49:26;;;;;;;2.10;1.13;;;18.50;76.20;;;;;;5048285;28;20063;-68
2022/07/07 06:51:52;;;;;;;4.82;1.23;;;18.60;76.10;;;;;;5046084;28;20067;-68
2022/07/07 06:54:18;;;;;;;3.63;1.10;;;18.70;75.90;;;;;;5045869;28;20029;-68
2022/07/07 06:56:43;;;;;;;2.78;1.00;;;18.70;75.60;;;;;;5050950;28;20145;-68
2022/07/07 06:59:09;;;;;;;2.80;1.00;;;18.90;75.10;;;;;;5043090;28;20025;-68
2022/07/07 07:01:34;;;;;;;4.53;1.13;;;18.90;74.70;;;;;;5047758;28;20041;-68
2022/07/07 07:04:00;;;;;;;2.85;1.02;;;18.90;74.50;;;;;;5041237;28;20397;-68
2022/07/07 07:06:28;;;;;;;2.80;1.13;;;19.00;74.50;;;;;;5043457;28;20031;-68
2022/07/07 07:08:54;;;;;;;3.08;1.30;;;19.10;74.20;;;;;;5044650;28;20055;-68
2022/07/07 07:11:20;;;;;;;3.47;1.08;;;19.20;74.00;;;;;;5053803;28;20027;-68
2022/07/07 07:13:47;;;;;;;2.53;1.27;;;19.30;73.70;;;;;;5038438;28;20025;-67
2022/07/07 07:16:16;;;;;;;3.17;1.05;;;19.30;73.60;;;;;;5039889;28;20120;-68
2022/07/07 07:18:42;;;;;;;4.40;1.10;;;19.30;73.40;;;;;;5048637;28;20021;-67
2022/07/07 07:21:08;;;;;;;2.97;0.98;;;19.40;73.40;;;;;;5044547;28;20036;-68
2022/07/07 07:23:33;;;;;;;2.90;0.80;;;19.40;73.20;;;;;;5043085;28;20045;-67
2022/07/07 07:25:59;;;;;;;2.80;1.10;;;19.40;73.30;;;;;;5043959;28;20514;-68
2022/07/07 07:28:25;;;;;;;2.75;0.88;;;19.20;73.60;;;;;;5047318;28;20029;-69
2022/07/07 07:30:50;;;;;;;2.25;0.90;;;19.00;74.20;;;;;;5044366;28;20080;-69
2022/07/07 07:33:16;;;;;;;3.30;0.82;;;19.00;74.70;;;;;;5055466;28;20025;-69
2022/07/07 07:35:42;;;;;;;5.25;1.00;;;18.90;74.80;;;;;;5053099;28;20036;-68
2022/07/07 07:38:08;;;;;;;3.55;0.93;;;19.00;75.20;;;;;;5066087;28;20157;-68
2022/07/07 07:40:33;;;;;;;3.33;1.00;;;19.20;75.00;;;;;;5071863;28;20386;-69
2022/07/07 07:42:59;;;;;;;1.92;0.88;;;19.20;74.60;;;;;;5064230;28;20476;-68
2022/07/07 07:45:24;;;;;;;2.72;1.10;;;19.10;74.50;;;;;;5051095;28;20025;-68
2022/07/07 07:47:50;;;;;;;2.85;0.90;;;19.00;74.60;;;;;;5063430;28;20043;-68
2022/07/07 07:50:19;;;;;;;3.17;1.05;;;18.80;74.90;;;;;;5071432;28;20020;-68
2022/07/07 07:52:45;;;;;;;2.80;0.80;;;18.80;75.40;;;;;;5071670;28;20020;-68
2022/07/07 07:55:13;;;;;;;2.92;0.70;;;18.70;75.70;;;;;;5064341;28;20029;-68
2022/07/07 07:57:39;;;;;;;3.72;0.98;;;18.80;76.00;;;;;;5049411;28;20340;-69
2022/07/07 08:00:08;;;;;;;3.38;0.88;;;18.90;75.60;;;;;;5038090;28;20024;-69
2022/07/07 08:02:34;;;;;;;2.90;1.00;;;19.00;75.50;;;;;;5042406;28;20093;-69
2022/07/07 08:04:59;;;;;;;1.42;0.70;;;18.90;75.30;;;;;;5044299;28;20109;-68
2022/07/07 08:07:25;;;;;;;3.10;0.90;;;19.00;75.40;;;;;;5036828;28;20064;-68
2022/07/07 08:09:50;;;;;;;2.78;0.90;;;19.10;75.10;;;;;;5044464;28;20034;-68
2022/07/07 08:12:16;;;;;;;3.38;0.90;;;19.20;75.00;;;;;;5045999;28;20031;-68
2022/07/07 08:14:41;;;;;;;3.88;1.08;;;19.20;74.90;;;;;;5044884;28;20035;-68
2022/07/07 08:17:07;;;;;;;4.90;1.10;;;19.10;75.30;;;;;;5041600;28;20029;-68
2022/07/07 08:19:33;;;;;;;1.88;0.80;;;19.00;75.60;;;;;;5047014;28;20025;-68
2022/07/07 08:21:58;;;;;;;4.15;0.90;;;19.00;75.80;;;;;;5047528;28;20025;-68
2022/07/07 08:24:25;;;;;;;1.85;0.70;;;18.90;76.00;;;;;;5045257;28;20013;-68
2022/07/07 08:26:51;;;;;;;3.70;1.02;;;18.90;76.20;;;;;;5046559;28;20074;-68
2022/07/07 08:29:16;;;;;;;1.88;0.70;;;18.90;76.20;;;;;;5047586;28;20056;-68
2022/07/07 08:31:42;;;;;;;2.55;0.80;;;18.90;76.40;;;;;;5047556;28;20045;-68
2022/07/07 08:34:08;;;;;;;2.97;1.02;;;18.90;76.70;;;;;;5048221;28;20029;-68
2022/07/07 08:36:34;;;;;;;3.08;0.95;;;19.20;76.20;;;;;;5048830;28;20438;-68
2022/07/07 08:39:00;;;;;;;4.45;1.00;;;19.40;75.90;;;;;;5047088;28;20097;-68
2022/07/07 08:41:26;;;;;;;5.72;1.85;;;19.40;75.50;;;;;;5047684;28;20399;-68
2022/07/07 08:43:52;;;;;;;4.93;1.40;;;19.30;75.10;;;;;;5045237;28;20025;-68
2022/07/07 08:46:18;;;;;;;4.30;1.35;;;19.20;75.50;;;;;;5048041;28;20715;-68
2022/07/07 08:48:43;;;;;;;2.50;1.10;;;19.20;75.80;;;;;;5048312;28;20025;-68
2022/07/07 08:51:09;;;;;;;3.92;0.80;;;19.40;76.00;;;;;;5046459;28;20037;-68
2022/07/07 08:53:36;;;;;;;2.80;0.80;;;19.60;75.50;;;;;;5043587;28;20029;-68
2022/07/07 08:56:07;;;;;;;1.67;0.70;;;19.80;75.00;;;;;;5046763;28;20033;-68
2022/07/07 08:58:35;;;;;;;1.73;0.60;;;20.00;74.30;;;;;;5044243;28;20024;-68
2022/07/07 09:01:04;;;;;;;1.60;0.68;;;20.20;73.90;;;;;;5040088;28;20051;-68
2022/07/07 09:03:30;;;;;;;3.13;0.88;;;20.40;73.80;;;;;;5038310;28;20032;-68
2022/07/07 09:05:57;;;;;;;3.17;0.80;;;20.40;73.00;;;;;;5045509;28;20488;-68
2022/07/07 09:08:24;;;;;;;1.85;0.60;;;20.20;72.60;;;;;;5041649;28;20036;-69
2022/07/07 09:10:50;;;;;;;2.60;0.80;;;20.00;72.90;;;;;;5039257;28;20032;-68
2022/07/07 09:13:30;;;;;;;2.08;0.73;;;19.80;73.20;;;;;;5042172;28;20028;-68
2022/07/07 09:15:57;;;;;;;1.52;0.85;;;19.60;73.70;;;;;;5047717;28;20029;-68
2022/07/07 09:18:30;;;;;;;3.38;0.68;;;19.60;74.10;;;;;;5045609;28;20395;-68
2022/07/07 09:20:57;;;;;;;2.70;0.73;;;19.60;74.10;;;;;;5046653;28;20107;-68
2022/07/07 09:23:22;;;;;;;1.25;0.60;;;19.70;74.30;;;;;;5047501;28;20013;-68
2022/07/07 09:25:48;;;;;;;2.03;0.50;;;19.80;73.90;;;;;;5043093;28;20369;-66
2022/07/07 09:28:13;;;;;;;2.10;0.70;;;19.90;73.50;;;;;;5044460;28;20052;-67
2022/07/07 09:30:41;;;;;;;2.22;0.88;;;20.10;73.30;;;;;;5044210;28;20033;-67
2022/07/07 09:33:09;;;;;;;1.63;0.80;;;20.20;72.60;;;;;;5039867;28;20028;-66
2022/07/07 09:38:24;;;;;;;1.35;0.50;;;20.40;71.10;;;;;;5039451;28;20103;-67
2022/07/07 09:40:53;;;;;;;2.75;0.68;;;20.50;70.70;;;;;;5036391;28;20510;-68
2022/07/07 09:43:19;;;;;;;2.78;0.60;;;20.40;70.30;;;;;;5039215;28;20411;-68
2022/07/07 09:46:08;;;;;;;1.52;0.50;;;20.20;70.00;;;;;;5040065;28;20574;-67
2022/07/07 09:48:34;;;;;;;0.75;0.47;;;19.90;70.70;;;;;;5035244;28;20056;-67
2022/07/07 09:51:30;;;;;;;1.00;0.52;;;19.70;71.50;;;;;;5039743;28;20021;-68
2022/07/07 09:54:07;;;;;;;0.93;0.47;;;19.60;71.90;;;;;;5032029;28;20029;-67
2022/07/07 09:56:47;;;;;;;3.13;0.50;;;19.50;71.90;;;;;;5041655;28;20025;-68
2022/07/07 09:59:15;;;;;;;1.17;0.65;;;19.70;72.00;;;;;;5042115;28;20104;-68
2022/07/07 10:01:44;;;;;;;0.90;0.50;;;19.90;71.60;;;;;;5037633;28;20108;-67
2022/07/07 10:04:12;;;;;;;1.65;0.63;;;19.90;71.40;;;;;;5038635;28;20476;-68
2022/07/07 10:06:40;;;;;;;1.70;0.60;;;19.80;71.50;;;;;;5031929;28;20561;-68
2022/07/07 10:09:08;;;;;;;1.85;0.50;;;19.80;71.60;;;;;;5034365;28;20387;-67
2022/07/07 10:11:42;;;;;;;1.88;0.65;;;19.70;71.70;;;;;;5047706;28;20053;-68
2022/07/07 10:14:14;;;;;;;1.48;0.60;;;19.70;72.00;;;;;;5042167;28;20475;-67
2022/07/07 10:16:42;;;;;;;1.83;0.60;;;19.70;72.20;;;;;;5048628;28;20036;-67
2022/07/07 10:19:13;;;;;;;1.88;0.65;;;19.80;72.00;;;;;;5048350;28;20033;-67
2022/07/07 10:21:47;;;;;;;2.88;0.80;;;19.90;71.80;;;;;;5035305;28;20787;-67
2022/07/07 10:24:17;;;;;;;0.80;0.50;;;20.00;71.50;;;;;;5039626;28;20025;-67
2022/07/07 10:26:47;;;;;;;1.25;0.50;;;20.20;71.30;;;;;;5042182;28;20415;-67
2022/07/07 10:29:13;;;;;;;1.17;0.50;;;20.30;70.90;;;;;;5041104;28;20025;-69
2022/07/07 10:31:39;;;;;;;1.83;0.80;;;20.30;70.70;;;;;;5039543;28;20082;-67
2022/07/07 10:34:10;;;;;;;1.30;0.65;;;20.30;70.40;;;;;;5042916;28;20029;-68
2022/07/07 10:36:58;;;;;;;2.95;0.80;;;20.20;70.60;;;;;;5040223;28;20025;-67
2022/07/07 10:39:28;;;;;;;0.73;0.60;;;20.20;70.40;;;;;;5039383;28;20033;-69
2022/07/07 10:42:04;;;;;;;1.95;0.68;;;20.10;70.50;;;;;;5040786;28;20032;-68
2022/07/07 10:44:36;;;;;;;1.25;0.70;;;20.20;70.60;;;;;;5039077;28;20030;-67
2022/07/07 10:47:24;;;;;;;1.83;0.70;;;20.10;70.40;;;;;;5042666;28;20111;-67
2022/07/07 10:49:57;;;;;;;1.77;0.57;;;20.10;70.80;;;;;;5046430;28;20035;-67
2022/07/07 10:52:40;;;;;;;2.17;0.68;;;20.10;70.90;;;;;;5044418;28;20028;-67
2022/07/07 10:55:06;;;;;;;2.13;0.80;;;20.20;71.00;;;;;;5044577;28;20514;-68
2022/07/07 10:57:41;;;;;;;2.28;0.80;;;20.20;70.80;;;;;;5042953;28;20040;-68
2022/07/07 11:00:26;;;;;;;1.52;0.77;;;20.40;70.70;;;;;;5045788;28;20120;-68
2022/07/07 11:03:07;;;;;;;0.90;0.60;;;20.60;70.40;;;;;;5047046;28;20412;-68
2022/07/07 11:05:34;;;;;;;1.98;0.80;;;20.80;69.80;;;;;;5042897;28;20018;-68
2022/07/07 11:08:02;;;;;;;1.58;0.70;;;21.10;69.30;;;;;;5047978;28;20021;-68
2022/07/07 11:10:37;;;;;;;1.73;0.70;;;21.20;68.90;;;;;;5038982;28;20072;-68
2022/07/07 11:13:21;;;;;;;0.63;0.60;;;21.20;68.60;;;;;;5046403;28;20036;-68
2022/07/07 11:15:49;;;;;;;1.17;0.80;;;21.10;68.50;;;;;;5047775;28;20017;-68
2022/07/07 11:18:17;;;;;;;2.95;1.10;;;20.90;68.90;;;;;;5043570;28;20021;-68
2022/07/07 11:21:01;;;;;;;1.15;0.73;;;20.60;69.90;;;;;;5045849;28;20053;-68
2022/07/07 11:23:42;;;;;;;0.60;0.60;;;20.30;70.90;;;;;;5044500;28;20025;-68
2022/07/07 11:26:08;;;;;;;2.55;0.80;;;20.20;71.80;;;;;;5052535;28;20035;-67
2022/07/07 11:28:35;;;;;;;2.20;0.70;;;20.30;72.20;;;;;;5048650;28;20087;-67
2022/07/07 11:31:04;;;;;;;2.55;1.25;;;20.50;72.20;;;;;;5048176;28;20045;-67
2022/07/07 11:33:29;;;;;;;1.95;0.90;;;20.60;72.00;;;;;;5046733;28;20037;-67
2022/07/07 11:35:55;;;;;;;2.60;0.80;;;20.70;71.80;;;;;;5051948;28;20588;-67
2022/07/07 11:38:27;;;;;;;2.65;0.80;;;20.70;71.50;;;;;;5048935;28;20036;-67
2022/07/07 11:40:53;;;;;;;1.60;0.77;;;20.60;71.00;;;;;;5046895;28;20017;-68
2022/07/07 11:43:25;;;;;;;2.20;0.82;;;20.50;70.60;;;;;;5048856;28;20158;-68
2022/07/07 11:45:51;;;;;;;1.90;0.90;;;20.40;70.40;;;;;;5068364;28;20029;-68
2022/07/07 11:48:17;;;;;;;1.48;0.80;;;20.50;70.20;;;;;;5065722;28;20040;-67
2022/07/07 11:50:43;;;;;;;1.55;0.82;;;20.60;70.00;;;;;;5050941;28;20028;-68
2022/07/07 11:53:09;;;;;;;2.22;1.08;;;20.60;69.80;;;;;;5046109;28;20025;-68
2022/07/07 11:55:35;;;;;;;2.17;0.88;;;20.60;69.70;;;;;;5049198;28;20563;-67
2022/07/07 11:58:03;;;;;;;1.95;0.88;;;20.70;69.80;;;;;;5049668;28;20040;-68
2022/07/07 12:00:31;;;;;;;1.92;0.73;;;20.40;70.20;;;;;;5045761;28;20541;-68
2022/07/07 12:02:58;;;;;;;2.15;1.00;;;20.30;71.00;;;;;;5043397;28;20017;-68
2022/07/07 12:05:26;;;;;;;4.28;1.02;;;20.30;70.80;;;;;;5047553;28;20140;-67
2022/07/07 12:07:58;;;;;;;3.17;1.05;;;20.30;70.60;;;;;;5045867;28;20044;-68
2022/07/07 12:10:27;;;;;;;2.72;1.00;;;20.30;70.40;;;;;;5045924;28;20029;-69
2022/07/07 12:12:57;;;;;;;3.25;1.10;;;20.40;70.30;;;;;;5049551;28;20844;-67
2022/07/07 12:15:31;;;;;;;1.70;1.00;;;20.60;69.80;;;;;;5044867;28;20159;-68
2022/07/07 12:17:58;;;;;;;1.55;0.90;;;20.60;69.50;;;;;;5047517;28;20060;-68
2022/07/07 12:20:24;;;;;;;2.42;0.93;;;20.60;69.10;;;;;;5047666;28;20095;-68
2022/07/07 12:22:54;;;;;;;2.50;0.90;;;20.50;69.10;;;;;;5045996;28;20103;-69
2022/07/07 12:25:22;;;;;;;6.28;1.70;;;20.40;69.90;;;;;;5047308;28;20029;-68
2022/07/07 12:27:55;;;;;;;4.82;1.58;;;20.10;70.30;;;;;;5058801;28;20033;-68
2022/07/07 12:30:21;;;;;;;5.97;1.73;;;19.90;71.10;;;;;;5053638;28;20037;-68
2022/07/07 12:32:47;;;;;;;5.40;1.42;;;19.80;71.80;;;;;;5048871;28;20045;-68
2022/07/07 12:35:38;;;;;;;4.47;1.30;;;19.80;72.00;;;;;;5057334;28;20033;-68
2022/07/07 12:38:06;;;;;;;4.53;1.63;;;19.80;71.80;;;;;;5049915;28;20036;-68
2022/07/07 12:40:33;;;;;;;8.68;1.80;;;19.90;71.80;;;;;;5048656;28;20029;-68
2022/07/07 12:43:11;;;;;;;4.57;1.50;;;19.90;71.40;;;;;;5044684;28;20613;-68
2022/07/07 12:45:38;;;;;;;5.10;1.58;;;20.00;71.20;;;;;;5045238;28;20483;-68
2022/07/07 12:48:14;;;;;;;6.15;1.60;;;20.20;71.00;;;;;;5042282;28;20090;-68
2022/07/07 12:50:40;;;;;;;5.30;1.77;;;20.30;70.20;;;;;;5046873;28;20043;-69